createdAt,value
2018-03-04T00:02:05.352Z,57.77
2018-03-04T00:04:32.747Z,57.47
2018-03-04T00:07:00.140Z,59.60
2018-03-04T00:09:27.547Z,57.70
2018-03-04T00:11:54.941Z,57.60
2018-03-04T00:14:23.031Z,58.63
2018-03-04T00:16:50.742Z,59.33
2018-03-04T00:19:18.145Z,56.10
2018-03-04T00:21:45.569Z,59.07
2018-03-04T00:24:12.953Z,56.90
2018-03-04T00:26:40.345Z,58.50
2018-03-04T00:29:07.783Z,61.10
2018-03-04T00:31:35.213Z,60.70
2018-03-04T00:34:02.907Z,59.33
2018-03-04T00:36:30.341Z,61.47
2018-03-04T00:38:57.728Z,63.10
2018-03-04T00:41:25.116Z,61.50
2018-03-04T00:43:53.352Z,65.28
2018-03-04T00:46:20.744Z,61.40
2018-03-04T00:48:48.170Z,67.70
2018-03-04T00:51:15.576Z,64.30
2018-03-04T00:53:42.992Z,62.50
2018-03-04T00:56:10.388Z,62.70
2018-03-04T00:58:37.802Z,66.50
2018-03-04T01:01:05.205Z,68.37
2018-03-04T01:03:32.770Z,63.70
2018-03-04T01:06:00.204Z,66.00
2018-03-04T01:08:27.594Z,65.67
2018-03-04T01:10:55.139Z,61.67
2018-03-04T01:13:23.380Z,66.37
2018-03-04T01:15:51.693Z,63.43
2018-03-04T01:18:19.280Z,69.10
2018-03-04T01:20:46.663Z,66.40
2018-03-04T01:23:14.062Z,63.90
2018-03-04T01:25:41.520Z,66.10
2018-03-04T01:28:09.174Z,69.57
2018-03-04T01:30:36.580Z,65.03
2018-03-04T01:33:04.898Z,68.73
2018-03-04T01:35:32.330Z,65.30
2018-03-04T01:37:59.715Z,65.40
2018-03-04T01:40:27.108Z,67.10
2018-03-04T01:42:56.556Z,69.37
2018-03-04T01:45:23.947Z,67.40
2018-03-04T01:47:51.351Z,67.67
2018-03-04T01:50:18.806Z,71.57
2018-03-04T01:52:46.215Z,72.27
2018-03-04T01:55:13.599Z,73.00
2018-03-04T01:57:41.029Z,70.73
2018-03-04T02:00:08.457Z,71.57
2018-03-04T02:02:35.918Z,71.70
2018-03-04T02:05:03.310Z,72.00
2018-03-04T02:07:30.736Z,73.20
2018-03-04T02:09:58.150Z,72.17
2018-03-04T02:12:25.550Z,70.40
2018-03-04T02:14:53.622Z,72.70
2018-03-04T02:17:21.038Z,72.97
2018-03-04T02:19:48.439Z,72.07
2018-03-04T02:22:15.935Z,73.10
2018-03-04T02:24:43.312Z,74.00
2018-03-04T02:27:10.950Z,72.65
2018-03-04T02:29:38.362Z,75.47
2018-03-04T02:32:06.019Z,69.82
2018-03-04T02:34:33.532Z,71.80
2018-03-04T02:37:01.000Z,72.50
2018-03-04T02:39:28.401Z,72.53
2018-03-04T02:41:55.822Z,72.40
2018-03-04T02:44:23.726Z,72.00
2018-03-04T02:46:51.117Z,71.80
2018-03-04T02:49:18.528Z,72.00
2018-03-04T02:51:46.018Z,72.83
2018-03-04T02:54:13.494Z,72.30
2018-03-04T02:56:40.968Z,75.57
2018-03-04T02:59:08.417Z,72.33
2018-03-04T03:01:35.797Z,72.50
2018-03-04T03:04:03.181Z,70.10
2018-03-04T03:06:30.572Z,71.00
2018-03-04T03:08:58.012Z,72.93
2018-03-04T03:11:25.416Z,70.90
2018-03-04T03:13:52.796Z,75.20
2018-03-04T03:16:20.287Z,71.20
2018-03-04T03:18:47.698Z,71.03
2018-03-04T03:21:15.092Z,73.50
2018-03-04T03:23:42.527Z,74.80
2018-03-04T03:26:09.929Z,72.30
2018-03-04T03:28:37.389Z,74.60
2018-03-04T03:31:04.811Z,72.77
2018-03-04T03:33:32.193Z,75.03
2018-03-04T03:35:59.624Z,74.80
2018-03-04T03:38:27.037Z,71.60
2018-03-04T03:40:54.450Z,71.03
2018-03-04T03:43:21.856Z,72.97
2018-03-04T03:45:49.233Z,73.17
2018-03-04T03:48:16.628Z,72.63
2018-03-04T03:50:44.021Z,68.77
2018-03-04T03:53:11.492Z,72.50
2018-03-04T03:55:38.871Z,70.10
2018-03-04T03:58:06.253Z,66.83
2018-03-04T04:00:33.684Z,68.20
2018-03-04T04:03:01.107Z,70.50
2018-03-04T04:05:28.498Z,68.27
2018-03-04T04:07:55.918Z,67.50
2018-03-04T04:10:24.246Z,66.50
2018-03-04T04:12:51.641Z,66.70
2018-03-04T04:15:19.102Z,68.65
2018-03-04T04:17:46.501Z,67.60
2018-03-04T04:20:13.883Z,66.37
2018-03-04T04:22:41.270Z,65.18
2018-03-04T04:25:08.720Z,70.60
2018-03-04T04:27:36.120Z,65.53
2018-03-04T04:30:03.603Z,64.45
2018-03-04T04:32:30.985Z,62.60
2018-03-04T04:34:58.395Z,62.23
2018-03-04T04:37:25.843Z,64.70
2018-03-04T04:39:54.416Z,64.58
2018-03-04T04:42:21.795Z,65.40
2018-03-04T04:44:49.196Z,61.20
2018-03-04T04:47:16.595Z,64.60
2018-03-04T04:49:43.979Z,65.97
2018-03-04T04:52:11.427Z,64.47
2018-03-04T04:54:38.843Z,60.17
2018-03-04T04:57:06.418Z,62.70
2018-03-04T04:59:33.977Z,60.77
2018-03-04T05:02:01.377Z,63.47
2018-03-04T05:04:28.788Z,58.65
2018-03-04T05:06:56.216Z,61.40
2018-03-04T05:09:24.663Z,65.15
2018-03-04T05:11:52.253Z,60.77
2018-03-04T05:14:19.656Z,59.17
2018-03-04T05:16:47.064Z,58.00
2018-03-04T05:19:14.630Z,59.13
2018-03-04T05:21:42.217Z,59.33
2018-03-04T05:24:09.590Z,59.50
2018-03-04T05:26:36.993Z,57.00
2018-03-04T05:29:04.389Z,60.97
2018-03-04T05:31:31.954Z,58.67
2018-03-04T05:33:59.369Z,58.35
2018-03-04T05:36:26.756Z,58.83
2018-03-04T05:38:54.561Z,57.65
2018-03-04T05:41:21.956Z,59.90
2018-03-04T05:43:49.567Z,58.08
2018-03-04T05:46:17.005Z,57.90
2018-03-04T05:48:44.414Z,58.87
2018-03-04T05:51:11.793Z,60.10
2018-03-04T05:53:39.281Z,57.77
2018-03-04T05:56:06.835Z,57.67
2018-03-04T05:58:34.250Z,57.50
2018-03-04T06:01:01.773Z,59.83
2018-03-04T06:03:29.164Z,58.30
2018-03-04T06:05:56.592Z,62.15
2018-03-04T06:08:24.849Z,57.53
2018-03-04T06:10:52.270Z,55.90
2018-03-04T06:13:19.665Z,56.67
2018-03-04T06:15:47.928Z,61.23
2018-03-04T06:18:15.338Z,60.60
2018-03-04T06:20:42.822Z,57.40
2018-03-04T06:23:10.221Z,59.47
2018-03-04T06:25:37.631Z,57.90
2018-03-04T06:28:05.036Z,60.43
2018-03-04T06:30:32.425Z,57.40
2018-03-04T06:32:59.830Z,57.22
2018-03-04T06:35:27.235Z,57.10
2018-03-04T06:37:55.060Z,57.08
2018-03-04T06:40:22.458Z,60.30
2018-03-04T06:42:49.916Z,58.23
2018-03-04T06:45:17.373Z,58.17
2018-03-04T06:47:44.779Z,58.93
2018-03-04T06:50:12.251Z,59.35
2018-03-04T06:52:39.982Z,55.30
2018-03-04T06:55:07.449Z,58.87
2018-03-04T06:57:34.951Z,57.50
2018-03-04T07:00:02.335Z,54.80
2018-03-04T07:02:29.752Z,58.03
2018-03-04T07:04:57.135Z,58.17
2018-03-04T07:07:24.863Z,57.20
2018-03-04T07:09:52.248Z,58.07
2018-03-04T07:12:19.646Z,58.17
2018-03-04T07:14:47.062Z,61.10
2018-03-04T07:17:14.450Z,58.60
2018-03-04T07:19:42.579Z,56.85
2018-03-04T07:22:09.969Z,58.27
2018-03-04T07:24:37.370Z,54.67
2018-03-04T07:27:04.765Z,57.92
2018-03-04T07:29:32.211Z,57.37
2018-03-04T07:31:59.620Z,59.17
2018-03-04T07:34:27.176Z,56.77
2018-03-04T07:36:55.155Z,52.95
2018-03-04T07:39:22.606Z,58.00
2018-03-04T07:41:49.999Z,54.43
2018-03-04T07:44:17.371Z,53.10
2018-03-04T07:46:45.769Z,55.97
2018-03-04T07:49:13.153Z,58.47
2018-03-04T07:51:40.562Z,55.90
2018-03-04T07:54:07.935Z,55.47
2018-03-04T07:56:35.431Z,55.03
2018-03-04T07:59:02.819Z,56.40
2018-03-04T08:01:30.228Z,53.53
2018-03-04T08:03:58.038Z,54.00
2018-03-04T08:06:25.432Z,55.37
2018-03-04T08:08:52.954Z,54.73
2018-03-04T08:11:20.388Z,54.17
2018-03-04T08:13:48.180Z,52.03
2018-03-04T08:16:15.562Z,53.00
2018-03-04T08:18:42.960Z,52.13
2018-03-04T08:21:10.394Z,54.72
2018-03-04T08:23:37.806Z,51.13
2018-03-04T08:26:16.821Z,53.40
2018-03-04T08:28:44.271Z,52.33
2018-03-04T08:31:11.647Z,53.55
2018-03-04T08:33:39.092Z,51.35
2018-03-04T08:36:06.629Z,47.97
2018-03-04T08:38:34.429Z,48.47
2018-03-04T08:41:01.903Z,52.22
2018-03-04T08:43:29.389Z,50.08
2018-03-04T08:45:56.830Z,49.37
2018-03-04T08:48:24.250Z,51.67
2018-03-04T08:50:51.653Z,48.80
2018-03-04T08:53:19.058Z,48.47
2018-03-04T08:55:46.437Z,48.73
2018-03-04T08:58:14.051Z,48.70
2018-03-04T09:00:41.450Z,49.40
2018-03-04T09:03:08.828Z,49.40
2018-03-04T09:05:36.262Z,50.28
2018-03-04T09:08:03.707Z,51.87
2018-03-04T09:10:31.117Z,47.40
2018-03-04T09:12:58.492Z,50.10
2018-03-04T09:15:25.937Z,50.00
2018-03-04T09:17:54.310Z,49.92
2018-03-04T09:20:21.715Z,49.60
2018-03-04T09:22:49.128Z,49.67
2018-03-04T09:25:16.709Z,49.43
2018-03-04T09:27:44.152Z,47.67
2018-03-04T09:30:11.572Z,49.15
2018-03-04T09:32:38.986Z,48.65
2018-03-04T09:35:06.673Z,47.28
2018-03-04T09:37:34.055Z,49.67
2018-03-04T09:40:01.585Z,46.30
2018-03-04T09:42:28.963Z,49.50
2018-03-04T09:44:56.409Z,52.00
2018-03-04T09:47:23.809Z,45.50
2018-03-04T09:49:51.285Z,40.80
2018-03-04T09:52:18.736Z,42.20
2018-03-04T09:54:46.263Z,42.10
2018-03-04T09:57:13.658Z,40.97
2018-03-04T09:59:41.062Z,40.67
2018-03-04T10:02:08.489Z,40.57
2018-03-04T10:04:35.885Z,39.37
2018-03-04T10:07:03.310Z,36.10
2018-03-04T10:09:30.699Z,35.70
2018-03-04T10:11:58.092Z,38.57
2018-03-04T10:14:25.789Z,34.17
2018-03-04T10:16:53.181Z,34.13
2018-03-04T10:19:20.864Z,32.17
2018-03-04T10:21:48.278Z,34.97
2018-03-04T10:24:15.674Z,34.60
2018-03-04T10:26:43.123Z,34.77
2018-03-04T10:29:10.515Z,34.97
2018-03-04T10:31:37.933Z,33.10
2018-03-04T10:34:06.043Z,29.90
2018-03-04T10:36:33.428Z,31.63
2018-03-04T10:39:01.204Z,32.63
2018-03-04T10:41:28.610Z,30.53
2018-03-04T10:43:56.120Z,30.83
2018-03-04T10:46:23.657Z,30.63
2018-03-04T10:48:51.051Z,29.40
2018-03-04T10:51:18.449Z,30.03
2018-03-04T10:53:45.837Z,28.33
2018-03-04T10:56:13.349Z,27.20
2018-03-04T10:58:40.779Z,26.80
2018-03-04T11:01:10.034Z,28.25
2018-03-04T11:03:37.442Z,28.03
2018-03-04T11:06:05.006Z,84.37
2018-03-04T11:08:32.970Z,28.97
2018-03-04T11:11:00.390Z,26.20
2018-03-04T11:13:27.776Z,26.30
2018-03-04T11:15:56.048Z,28.23
2018-03-04T11:18:23.553Z,28.93
2018-03-04T11:20:50.981Z,26.63
2018-03-04T11:23:18.677Z,28.10
2018-03-04T11:25:46.101Z,24.87
2018-03-04T11:28:13.637Z,26.85
2018-03-04T11:30:41.014Z,25.67
2018-03-04T11:33:08.444Z,25.98
2018-03-04T11:35:36.244Z,24.27
2018-03-04T11:38:03.666Z,24.63
2018-03-04T11:40:31.073Z,24.27
2018-03-04T11:42:58.485Z,23.87
2018-03-04T11:45:26.208Z,23.92
2018-03-04T11:47:53.693Z,24.57
2018-03-04T11:50:21.105Z,25.50
2018-03-04T11:52:48.542Z,26.07
2018-03-04T11:55:15.964Z,24.30
2018-03-04T11:57:44.393Z,24.03
2018-03-04T12:00:11.934Z,23.77
2018-03-04T12:02:41.002Z,24.50
2018-03-04T12:05:08.561Z,23.87
2018-03-04T12:07:36.149Z,23.57
2018-03-04T12:10:03.762Z,23.07
2018-03-04T12:12:31.169Z,23.50
2018-03-04T12:14:58.619Z,22.00
2018-03-04T12:17:27.211Z,23.42
2018-03-04T12:19:54.639Z,22.60
2018-03-04T12:22:22.030Z,21.90
2018-03-04T12:24:49.659Z,22.53
2018-03-04T12:27:17.252Z,21.30
2018-03-04T12:29:44.876Z,21.13
2018-03-04T12:32:12.330Z,20.85
2018-03-04T12:34:39.739Z,21.08
2018-03-04T12:37:07.129Z,19.90
2018-03-04T12:39:34.619Z,20.00
2018-03-04T12:42:02.011Z,22.00
2018-03-04T12:44:29.510Z,26.80
2018-03-04T12:46:57.005Z,23.00
2018-03-04T12:49:25.080Z,21.13
2018-03-04T12:51:52.480Z,21.15
2018-03-04T12:54:19.903Z,22.40
2018-03-04T12:56:47.283Z,22.23
2018-03-04T12:59:14.686Z,22.80
2018-03-04T13:01:42.085Z,22.00
2018-03-04T13:04:09.487Z,22.60
2018-03-04T13:06:37.182Z,24.75
2018-03-04T13:09:08.879Z,28.50
2018-03-04T13:11:36.287Z,27.77
2018-03-04T13:14:03.740Z,28.58
2018-03-04T13:16:31.140Z,27.67
2018-03-04T13:18:58.679Z,31.33
2018-03-04T13:21:26.552Z,32.83
2018-03-04T13:23:53.960Z,31.73
2018-03-04T13:26:21.346Z,31.90
2018-03-04T13:28:48.897Z,32.00
2018-03-04T13:31:16.264Z,31.70
2018-03-04T13:33:43.707Z,34.43
2018-03-04T13:36:11.133Z,35.20
2018-03-04T13:38:38.612Z,35.53
2018-03-04T13:41:07.109Z,35.80
2018-03-04T13:43:34.614Z,35.90
2018-03-04T13:46:02.014Z,37.33
2018-03-04T13:48:29.433Z,36.90
2018-03-04T13:50:56.832Z,37.00
2018-03-04T13:53:24.232Z,39.40
2018-03-04T13:55:51.633Z,37.90
2018-03-04T13:58:19.037Z,37.73
2018-03-04T14:00:46.534Z,38.83
2018-03-04T14:03:13.990Z,38.60
2018-03-04T14:05:41.425Z,38.97
2018-03-04T14:08:12.056Z,38.67
2018-03-04T14:10:39.583Z,39.60
2018-03-04T14:13:07.014Z,39.13
2018-03-04T14:15:34.661Z,38.60
2018-03-04T14:18:02.163Z,39.86
2018-03-04T14:20:29.586Z,38.53
2018-03-04T14:22:57.342Z,39.80
2018-03-04T14:25:25.052Z,39.38
2018-03-04T14:27:52.500Z,38.77
2018-03-04T14:30:19.930Z,38.77
2018-03-04T14:32:47.904Z,38.33
2018-03-04T14:35:15.338Z,38.23
2018-03-04T14:37:42.741Z,38.87
2018-03-04T14:40:17.037Z,38.47
2018-03-04T14:42:51.843Z,39.13
2018-03-04T14:45:19.504Z,38.80
2018-03-04T14:47:46.969Z,36.40
2018-03-04T14:50:14.360Z,35.80
2018-03-04T14:52:48.129Z,33.20
2018-03-04T14:55:15.546Z,35.47
2018-03-04T14:57:42.919Z,34.83
2018-03-04T15:00:10.324Z,33.20
2018-03-04T15:02:37.773Z,32.50
2018-03-04T15:05:05.216Z,34.23
2018-03-04T15:07:32.602Z,32.27
2018-03-04T15:10:00.117Z,32.97
2018-03-04T15:12:28.297Z,31.00
2018-03-04T15:14:55.738Z,33.80
2018-03-04T15:17:23.143Z,33.30
2018-03-04T15:19:50.549Z,33.00
2018-03-04T15:22:17.965Z,31.47
2018-03-04T15:24:45.421Z,33.97
2018-03-04T15:27:12.881Z,31.27
2018-03-04T15:29:40.522Z,31.25
2018-03-04T15:32:07.980Z,31.27
2018-03-04T15:34:35.614Z,31.37
2018-03-04T15:37:04.509Z,30.30
2018-03-04T15:39:31.952Z,29.47
2018-03-04T15:41:59.332Z,28.13
2018-03-04T15:44:28.597Z,28.30
2018-03-04T15:46:56.103Z,28.13
2018-03-04T15:49:23.538Z,26.80
2018-03-04T15:51:50.983Z,26.67
2018-03-04T15:54:18.381Z,24.87
2018-03-04T15:56:45.816Z,24.00
2018-03-04T15:59:13.197Z,24.12
2018-03-04T16:01:40.588Z,22.73
2018-03-04T16:04:07.993Z,23.13
2018-03-04T16:06:35.604Z,23.37
2018-03-04T16:09:03.005Z,21.17
2018-03-04T16:11:30.400Z,20.90
2018-03-04T16:13:57.812Z,21.37
2018-03-04T16:16:26.047Z,21.20
2018-03-04T16:18:53.656Z,20.70
2018-03-04T16:21:32.914Z,21.10
2018-03-04T16:24:09.549Z,20.55
2018-03-04T16:26:38.762Z,19.43
2018-03-04T16:29:08.267Z,18.67
2018-03-04T16:31:35.964Z,19.40
2018-03-04T16:34:03.357Z,19.10
2018-03-04T16:36:30.765Z,18.77
2018-03-04T16:38:58.156Z,18.27
2018-03-04T16:41:25.679Z,16.37
2018-03-04T16:43:53.342Z,17.30
2018-03-04T16:46:20.837Z,14.90
2018-03-04T16:48:48.255Z,17.40
2018-03-04T16:51:15.653Z,15.75
2018-03-04T16:53:43.229Z,14.90
2018-03-04T16:56:10.777Z,14.90
2018-03-04T16:58:38.162Z,15.70
2018-03-04T17:01:05.597Z,13.52
2018-03-04T17:03:32.997Z,14.17
2018-03-04T17:06:00.400Z,13.87
2018-03-04T17:08:28.008Z,13.30
2018-03-04T17:10:56.324Z,13.27
2018-03-04T17:13:23.714Z,12.03
2018-03-04T17:15:51.191Z,12.33
2018-03-04T17:18:18.689Z,13.50
2018-03-04T17:20:46.098Z,11.73
2018-03-04T17:23:19.134Z,11.23
2018-03-04T17:25:46.913Z,12.85
2018-03-04T17:28:15.933Z,12.77
2018-03-04T17:30:50.426Z,11.83
2018-03-04T17:33:19.145Z,12.17
2018-03-04T17:35:46.643Z,12.67
2018-03-04T17:38:14.252Z,12.50
2018-03-04T17:40:41.749Z,12.02
2018-03-04T17:43:09.144Z,12.70
2018-03-04T17:45:36.593Z,13.40
2018-03-04T17:48:04.179Z,14.27
2018-03-04T17:50:31.596Z,12.93
2018-03-04T17:52:59.259Z,12.50
2018-03-04T17:55:27.748Z,13.88
2018-03-04T17:57:55.159Z,13.00
2018-03-04T18:00:22.712Z,13.00
2018-03-04T18:02:50.147Z,13.60
2018-03-04T18:05:17.572Z,13.40
2018-03-04T18:07:44.983Z,12.70
2018-03-04T18:10:12.388Z,12.17
2018-03-04T18:12:40.794Z,12.27
2018-03-04T18:15:08.195Z,13.77
2018-03-04T18:17:35.593Z,11.83
2018-03-04T18:20:03.365Z,12.90
2018-03-04T18:22:30.743Z,10.90
2018-03-04T18:24:58.209Z,12.00
2018-03-04T18:27:26.040Z,12.33
2018-03-04T18:29:53.936Z,12.03
2018-03-04T18:32:21.332Z,12.47
2018-03-04T18:34:48.873Z,13.37
2018-03-04T18:37:16.304Z,19.80
2018-03-04T18:39:43.685Z,13.60
2018-03-04T18:42:11.159Z,12.43
2018-03-04T18:44:39.872Z,13.07
2018-03-04T18:47:07.278Z,11.73
2018-03-04T18:49:34.687Z,12.13
2018-03-04T18:52:02.098Z,12.35
2018-03-04T18:54:29.623Z,12.43
2018-03-04T18:56:58.011Z,12.20
2018-03-04T18:59:25.404Z,12.73
2018-03-04T19:01:52.837Z,10.90
2018-03-04T19:04:20.285Z,11.87
2018-03-04T19:06:47.679Z,11.53
2018-03-04T19:09:15.263Z,11.10
2018-03-04T19:11:42.653Z,11.15
2018-03-04T19:14:10.056Z,11.17
2018-03-04T19:16:37.448Z,12.23
2018-03-04T19:19:04.848Z,10.97
2018-03-04T19:21:39.470Z,11.97
2018-03-04T19:24:06.914Z,11.48
2018-03-04T19:26:35.332Z,10.90
2018-03-04T19:29:14.431Z,10.57
2018-03-04T19:31:41.889Z,11.30
2018-03-04T19:34:09.359Z,11.57
2018-03-04T19:36:36.815Z,12.10
2018-03-04T19:39:04.282Z,13.50
2018-03-04T19:41:31.715Z,12.43
2018-03-04T19:43:59.103Z,13.07
2018-03-04T19:46:26.590Z,12.90
2018-03-04T19:48:54.370Z,12.80
2018-03-04T19:51:21.758Z,14.17
2018-03-04T19:53:49.193Z,12.33
2018-03-04T19:56:16.572Z,13.03
2018-03-04T19:58:44.030Z,12.73
2018-03-04T20:01:11.572Z,13.43
2018-03-04T20:03:38.997Z,14.03
2018-03-04T20:06:06.483Z,14.25
2018-03-04T20:08:33.938Z,14.90
2018-03-04T20:11:01.437Z,14.90
2018-03-04T20:13:28.909Z,15.33
2018-03-04T20:15:56.968Z,14.73
2018-03-04T20:18:24.383Z,14.95
2018-03-04T20:20:51.884Z,14.87
2018-03-04T20:23:19.287Z,17.10
2018-03-04T20:25:46.756Z,15.33
2018-03-04T20:28:14.179Z,16.63
2018-03-04T20:30:44.470Z,15.90
2018-03-04T20:33:12.014Z,15.13
2018-03-04T20:35:39.519Z,16.10
2018-03-04T20:38:06.908Z,15.17
2018-03-04T20:40:34.296Z,16.20
2018-03-04T20:43:02.120Z,16.03
2018-03-04T20:45:29.504Z,16.80
2018-03-04T20:47:56.913Z,16.87
2018-03-04T20:50:24.450Z,17.40
2018-03-04T20:52:51.857Z,19.03
2018-03-04T20:55:19.312Z,16.80
2018-03-04T20:57:47.000Z,16.73
2018-03-04T21:00:14.461Z,17.40
2018-03-04T21:02:41.876Z,17.50
2018-03-04T21:05:09.283Z,14.83
2018-03-04T21:07:36.707Z,13.90
2018-03-04T21:10:04.152Z,14.17
2018-03-04T21:12:31.709Z,12.80
2018-03-04T21:14:59.172Z,13.77
2018-03-04T21:17:26.623Z,12.07
2018-03-04T21:19:54.065Z,12.87
2018-03-04T21:22:21.469Z,13.37
2018-03-04T21:24:48.891Z,14.13
2018-03-04T21:27:16.289Z,12.90
2018-03-04T21:29:43.808Z,14.13
2018-03-04T21:32:13.330Z,15.50
2018-03-04T21:34:40.744Z,15.93
2018-03-04T21:37:08.293Z,16.33
2018-03-04T21:39:35.858Z,15.98
2018-03-04T21:42:03.236Z,16.83
2018-03-04T21:44:30.636Z,19.40
2018-03-04T21:46:58.776Z,18.52
2018-03-04T21:49:26.170Z,19.43
2018-03-04T21:51:53.636Z,20.43
2018-03-04T21:54:21.015Z,20.70
2018-03-04T21:56:49.336Z,22.33
2018-03-04T21:59:16.720Z,22.23
2018-03-04T22:01:44.157Z,21.70
2018-03-04T22:04:11.543Z,21.53
2018-03-04T22:06:39.522Z,23.83
2018-03-04T22:09:06.963Z,22.23
2018-03-04T22:11:34.385Z,22.50
2018-03-04T22:14:01.904Z,22.63
2018-03-04T22:16:29.294Z,23.10
2018-03-04T22:18:56.898Z,21.90
2018-03-04T22:21:24.276Z,23.07
2018-03-04T22:23:51.668Z,21.23
2018-03-04T22:26:19.070Z,22.50
2018-03-04T22:28:46.474Z,23.55
2018-03-04T22:31:13.933Z,20.80
2018-03-04T22:33:41.345Z,24.13
2018-03-04T22:36:08.730Z,22.97
2018-03-04T22:38:36.120Z,24.57
2018-03-04T22:41:03.726Z,21.08
2018-03-04T22:43:31.173Z,22.30
2018-03-04T22:46:00.384Z,21.36
2018-03-04T22:48:27.902Z,21.47
2018-03-04T22:50:56.538Z,21.37
2018-03-04T22:53:23.980Z,21.60
2018-03-04T22:55:51.383Z,20.03
2018-03-04T22:58:18.772Z,20.20
2018-03-04T23:00:46.193Z,19.10
2018-03-04T23:03:13.607Z,20.60
2018-03-04T23:05:41.090Z,21.40
2018-03-04T23:08:08.498Z,21.45
2018-03-04T23:10:35.906Z,20.50
2018-03-04T23:13:03.838Z,22.07
2018-03-04T23:15:32.049Z,22.10
2018-03-04T23:17:59.522Z,21.83
2018-03-04T23:20:29.495Z,22.00
2018-03-04T23:22:57.152Z,21.07
2018-03-04T23:25:24.730Z,23.37
2018-03-04T23:27:53.353Z,22.20
2018-03-04T23:30:21.196Z,21.37
2018-03-04T23:32:48.680Z,21.53
2018-03-04T23:35:18.215Z,25.00
2018-03-04T23:37:45.586Z,20.77
2018-03-04T23:40:12.980Z,22.27
2018-03-04T23:42:40.387Z,24.10
2018-03-04T23:45:07.965Z,24.50
2018-03-04T23:47:35.336Z,22.58
2018-03-04T23:50:02.740Z,24.47
2018-03-04T23:52:30.145Z,24.73
2018-03-04T23:54:57.534Z,24.50
2018-03-04T23:57:24.957Z,23.93
2018-03-04T23:59:52.430Z,24.07
